Time;durP1;ratioP1;P1;durP2;ratioP2;P2;SDS_P1;SDS_P2;PMS_P1;PMS_P2;Temp;Humidity;BMP_temperature;BMP_pressure;BME280_temperature;BME280_humidity;BME280_pressure;Samples;Min_cycle;Max_cycle;Signal;HPM_P1;HPM_P2
2022/10/05 00:00:20;;;;;;;32.30;19.75;;;7.60;99.90;;;;;;5036767;28;20103;-73
2022/10/05 00:02:48;;;;;;;29.73;18.85;;;7.60;99.90;;;;;;5054128;28;20072;-73
2022/10/05 00:05:22;;;;;;;32.47;20.75;;;7.60;99.90;;;;;;5054547;28;20045;-74
2022/10/05 00:07:50;;;;;;;31.02;18.70;;;7.50;99.90;;;;;;5055691;28;20120;-74
2022/10/05 00:10:20;;;;;;;30.48;18.33;;;7.50;99.90;;;;;;5047170;28;20571;-73
2022/10/05 00:12:48;;;;;;;31.60;18.85;;;7.50;99.90;;;;;;5055358;28;20069;-73
2022/10/05 00:15:23;;;;;;;31.75;18.40;;;7.40;99.90;;;;;;5053256;28;20426;-73
2022/10/05 00:17:50;;;;;;;30.70;17.67;;;7.40;99.90;;;;;;5046045;28;20041;-74
2022/10/05 00:20:22;;;;;;;29.48;17.70;;;7.30;99.90;;;;;;5047985;28;20049;-74
2022/10/05 00:22:51;;;;;;;30.45;17.30;;;7.30;99.90;;;;;;5045567;28;20049;-74
2022/10/05 00:25:22;;;;;;;25.45;14.50;;;7.30;99.90;;;;;;5053951;28;20045;-73
2022/10/05 00:27:54;;;;;;;30.45;17.52;;;7.30;99.90;;;;;;5053238;28;20408;-74
2022/10/05 00:30:23;;;;;;;35.60;21.02;;;7.40;99.90;;;;;;5053998;28;20523;-74
2022/10/05 00:32:50;;;;;;;37.63;21.98;;;7.40;99.90;;;;;;5048712;28;20037;-74
2022/10/05 00:35:19;;;;;;;35.53;19.27;;;7.30;99.90;;;;;;5034833;28;20041;-74
2022/10/05 00:37:51;;;;;;;37.40;19.25;;;7.20;99.90;;;;;;5034364;28;20052;-74
2022/10/05 00:40:41;;;;;;;35.58;19.83;;;7.10;99.90;;;;;;5041955;28;20213;-73
2022/10/05 00:43:43;;;;;;;36.65;20.08;;;7.10;99.90;;;;;;5053133;28;20041;-74
2022/10/05 00:46:15;;;;;;;39.92;22.55;;;7.10;99.90;;;;;;5054402;28;20045;-74
2022/10/05 00:48:49;;;;;;;33.03;21.48;;;7.00;99.90;;;;;;5052907;28;20079;-73
2022/10/05 00:51:26;;;;;;;30.55;19.75;;;7.00;99.90;;;;;;5053494;28;20053;-74
2022/10/05 00:54:17;;;;;;;31.38;18.92;;;7.00;99.90;;;;;;5054003;28;20506;-74
2022/10/05 00:57:11;;;;;;;33.28;17.98;;;7.00;99.90;;;;;;5052483;28;20067;-74
2022/10/05 00:59:49;;;;;;;31.05;17.67;;;7.00;99.90;;;;;;5033968;28;20420;-74
2022/10/05 01:02:24;;;;;;;32.47;17.35;;;7.00;99.90;;;;;;5038441;28;20049;-74
2022/10/05 01:04:59;;;;;;;29.20;16.63;;;7.00;99.90;;;;;;5054115;28;21401;-74
2022/10/05 01:07:36;;;;;;;31.33;18.15;;;7.00;99.90;;;;;;5054133;28;20591;-73
2022/10/05 01:10:10;;;;;;;31.50;18.48;;;7.00;99.90;;;;;;5054398;28;20044;-74
2022/10/05 01:12:48;;;;;;;28.20;16.70;;;7.00;99.90;;;;;;5053007;28;20053;-74
2022/10/05 01:15:24;;;;;;;30.33;18.33;;;7.00;99.90;;;;;;5053650;28;20041;-73
2022/10/05 01:17:57;;;;;;;27.98;17.10;;;6.90;99.90;;;;;;5052724;28;20096;-73
2022/10/05 01:20:34;;;;;;;32.47;19.55;;;6.90;99.90;;;;;;5050171;28;20057;-74
2022/10/05 01:23:38;;;;;;;27.58;18.38;;;6.80;99.90;;;;;;5033905;28;20049;-74
2022/10/05 01:26:35;;;;;;;25.30;15.57;;;6.70;99.90;;;;;;5032025;28;20044;-74
2022/10/05 01:29:14;;;;;;;23.95;15.68;;;6.60;99.90;;;;;;5027859;28;20049;-74
2022/10/05 01:31:48;;;;;;;26.23;15.80;;;6.60;99.90;;;;;;5032527;28;20423;-74
2022/10/05 01:34:26;;;;;;;27.02;15.68;;;6.60;99.90;;;;;;5049756;28;20048;-74
2022/10/05 01:36:59;;;;;;;26.42;16.10;;;6.60;99.90;;;;;;5052134;28;20220;-74
2022/10/05 01:39:37;;;;;;;25.27;14.10;;;6.70;99.90;;;;;;5054008;28;20396;-74
2022/10/05 01:42:14;;;;;;;30.02;15.73;;;6.70;99.90;;;;;;5053799;28;20389;-74
2022/10/05 01:44:49;;;;;;;22.25;14.27;;;6.70;99.90;;;;;;5052639;28;20041;-74
2022/10/05 01:47:26;;;;;;;23.85;15.70;;;6.60;99.90;;;;;;5052121;28;20084;-74
2022/10/05 01:50:00;;;;;;;25.85;15.45;;;6.60;99.90;;;;;;5052508;28;20064;-74
2022/10/05 01:52:34;;;;;;;29.63;17.13;;;6.60;99.90;;;;;;5051110;28;20508;-73
2022/10/05 01:55:15;;;;;;;32.85;18.40;;;6.50;99.90;;;;;;5052056;28;20052;-74
2022/10/05 01:58:02;;;;;;;28.88;18.35;;;6.50;99.90;;;;;;5052124;28;20060;-74
2022/10/05 02:00:37;;;;;;;26.50;15.43;;;6.60;99.90;;;;;;5051437;28;20064;-74
2022/10/05 02:03:13;;;;;;;32.38;17.20;;;6.60;99.90;;;;;;5053086;28;20131;-74
2022/10/05 02:05:48;;;;;;;29.38;16.10;;;6.50;99.90;;;;;;5051774;28;20067;-74
2022/10/05 02:08:24;;;;;;;26.13;15.88;;;6.50;99.90;;;;;;5051821;28;20136;-74
2022/10/05 02:10:58;;;;;;;27.35;16.52;;;6.50;99.90;;;;;;5051970;28;20053;-74
2022/10/05 02:13:34;;;;;;;25.50;16.60;;;6.40;99.90;;;;;;5051625;28;20095;-74
2022/10/05 02:16:08;;;;;;;23.13;13.35;;;6.50;99.90;;;;;;5051806;28;20124;-74
2022/10/05 02:18:41;;;;;;;26.08;15.20;;;6.40;99.90;;;;;;5051570;28;20075;-74
2022/10/05 02:21:09;;;;;;;24.77;14.88;;;6.40;99.90;;;;;;5051471;28;20049;-74
2022/10/05 02:23:40;;;;;;;24.77;14.65;;;6.40;99.90;;;;;;5051800;28;20096;-74
2022/10/05 02:26:11;;;;;;;25.30;15.55;;;6.30;99.90;;;;;;5051647;28;20553;-73
2022/10/05 02:28:44;;;;;;;27.27;15.82;;;6.30;99.90;;;;;;5051542;28;20055;-73
2022/10/05 02:31:16;;;;;;;25.85;15.02;;;6.30;99.90;;;;;;5051642;28;20056;-74
2022/10/05 02:33:43;;;;;;;25.45;14.80;;;6.30;99.90;;;;;;5051190;28;20045;-74
2022/10/05 02:36:18;;;;;;;25.63;15.63;;;6.30;99.90;;;;;;5051435;28;20037;-74
2022/10/05 02:39:00;;;;;;;24.83;14.60;;;6.30;99.90;;;;;;5051481;28;20049;-74
2022/10/05 02:41:41;;;;;;;21.95;13.82;;;6.30;99.90;;;;;;5053265;28;20477;-73
2022/10/05 02:44:20;;;;;;;22.05;14.13;;;6.30;99.90;;;;;;5052130;28;20041;-73
2022/10/05 02:46:58;;;;;;;23.42;14.35;;;6.20;99.90;;;;;;5051286;28;20044;-73
2022/10/05 02:49:35;;;;;;;19.98;12.70;;;6.20;99.90;;;;;;5051542;28;20186;-73
2022/10/05 02:52:11;;;;;;;20.67;12.68;;;6.20;99.90;;;;;;5052659;28;20128;-73
2022/10/05 02:54:49;;;;;;;21.42;12.18;;;6.10;99.90;;;;;;5050944;28;20048;-74
2022/10/05 02:57:27;;;;;;;23.60;13.45;;;6.10;99.90;;;;;;5051056;28;20057;-73
2022/10/05 03:00:04;;;;;;;22.40;14.80;;;6.10;99.90;;;;;;5052124;28;20060;-73
2022/10/05 03:02:40;;;;;;;21.88;13.55;;;6.00;99.90;;;;;;5051055;28;20516;-73
2022/10/05 03:05:18;;;;;;;24.55;14.60;;;6.00;99.90;;;;;;5051795;28;20044;-74
2022/10/05 03:07:55;;;;;;;25.85;14.63;;;6.10;99.90;;;;;;5052492;28;20037;-74
2022/10/05 03:10:29;;;;;;;30.00;16.10;;;6.00;99.90;;;;;;5052339;28;20557;-74
2022/10/05 03:13:05;;;;;;;24.00;14.52;;;6.00;99.90;;;;;;5050970;28;20416;-73
2022/10/05 03:15:52;;;;;;;24.95;13.13;;;6.00;99.90;;;;;;5051505;28;20045;-73
2022/10/05 03:18:34;;;;;;;25.55;15.35;;;6.00;99.90;;;;;;5051112;28;20472;-73
2022/10/05 03:21:12;;;;;;;23.58;14.48;;;6.00;99.90;;;;;;5051829;28;20045;-73
2022/10/05 03:24:06;;;;;;;24.63;14.02;;;5.90;99.90;;;;;;5050725;28;20053;-73
2022/10/05 03:26:41;;;;;;;23.92;13.88;;;5.90;99.90;;;;;;5052699;28;20037;-73
2022/10/05 03:29:20;;;;;;;20.42;12.77;;;5.90;99.90;;;;;;5051845;28;20041;-74
2022/10/05 03:31:57;;;;;;;29.17;17.42;;;5.90;99.90;;;;;;5051118;28;20056;-74
2022/10/05 03:34:33;;;;;;;23.35;15.52;;;5.80;99.90;;;;;;5052991;28;20114;-74
2022/10/05 03:37:08;;;;;;;30.85;15.88;;;5.70;99.90;;;;;;5054578;28;20103;-74
2022/10/05 03:39:42;;;;;;;26.13;15.27;;;5.80;99.90;;;;;;5054544;28;20393;-74
2022/10/05 03:42:20;;;;;;;27.30;15.05;;;5.70;99.90;;;;;;5071386;28;20127;-73
2022/10/05 03:44:52;;;;;;;25.30;15.38;;;5.70;99.90;;;;;;5053686;28;20508;-74
2022/10/05 03:47:30;;;;;;;25.42;15.05;;;5.70;99.90;;;;;;5054829;28;20049;-74
2022/10/05 03:50:16;;;;;;;26.38;15.85;;;5.70;99.90;;;;;;5053951;28;20385;-74
2022/10/05 03:52:53;;;;;;;28.00;16.00;;;5.60;99.90;;;;;;5054085;28;20036;-74
2022/10/05 03:55:25;;;;;;;27.20;16.15;;;5.60;99.90;;;;;;5054185;28;20091;-74
2022/10/05 03:57:57;;;;;;;26.33;15.55;;;5.60;99.90;;;;;;5054098;28;20107;-74
2022/10/05 04:00:26;;;;;;;28.65;16.17;;;5.60;99.90;;;;;;5054299;28;20048;-74
2022/10/05 04:03:04;;;;;;;28.63;16.42;;;5.60;99.90;;;;;;5054025;28;20044;-73
2022/10/05 04:05:42;;;;;;;30.30;17.55;;;5.60;99.90;;;;;;5054173;28;20041;-74
2022/10/05 04:08:19;;;;;;;36.20;23.02;;;5.60;99.90;;;;;;5053927;28;20053;-74
2022/10/05 04:10:50;;;;;;;35.38;20.40;;;5.60;99.90;;;;;;5054301;28;20044;-74
2022/10/05 04:13:27;;;;;;;37.08;22.40;;;5.50;99.90;;;;;;5055064;28;20114;-73
2022/10/05 04:15:59;;;;;;;29.40;19.10;;;5.40;99.90;;;;;;5054021;28;20516;-73
2022/10/05 04:18:31;;;;;;;29.13;16.48;;;5.40;99.90;;;;;;5053694;28;20045;-73
2022/10/05 04:21:05;;;;;;;23.17;14.07;;;5.40;99.90;;;;;;5054669;28;20056;-73
2022/10/05 04:23:42;;;;;;;20.25;13.23;;;5.50;99.90;;;;;;5053009;28;20073;-73
2022/10/05 04:26:14;;;;;;;24.80;13.98;;;5.60;99.90;;;;;;5053729;28;20079;-73
2022/10/05 04:28:50;;;;;;;33.92;18.85;;;5.60;99.90;;;;;;5053465;28;20558;-72
2022/10/05 04:31:36;;;;;;;;;;;5.60;99.90;;;;;;5055478;28;20048;-73
2022/10/05 04:34:14;;;;;;;29.90;17.90;;;5.50;99.90;;;;;;5053075;28;19920;-73
2022/10/05 04:36:49;;;;;;;27.48;17.27;;;5.50;99.90;;;;;;5055027;28;20056;-73
2022/10/05 04:39:23;;;;;;;28.88;19.60;;;5.50;99.90;;;;;;5052988;28;20071;-73
2022/10/05 04:42:04;;;;;;;29.03;19.30;;;5.50;99.90;;;;;;5054146;28;20051;-73
2022/10/05 04:45:02;;;;;;;32.95;20.58;;;5.50;99.90;;;;;;5052737;28;20811;-73
2022/10/05 04:47:55;;;;;;;35.55;20.92;;;5.50;99.90;;;;;;5046491;28;20045;-73
2022/10/05 04:50:35;;;;;;;45.30;26.70;;;5.50;99.90;;;;;;5053467;28;20045;-73
2022/10/05 04:53:15;;;;;;;51.83;28.30;;;5.50;99.90;;;;;;5053223;28;20040;-74
2022/10/05 04:55:54;;;;;;;63.03;30.98;;;5.50;99.90;;;;;;5052062;28;20049;-74
2022/10/05 04:58:33;;;;;;;67.20;27.65;;;5.50;99.90;;;;;;5052745;28;20064;-74
2022/10/05 05:01:14;;;;;;;49.38;24.55;;;5.60;99.90;;;;;;5050846;28;20584;-74
2022/10/05 05:03:56;;;;;;;50.65;25.00;;;5.60;99.90;;;;;;5046694;28;20079;-74
2022/10/05 05:06:35;;;;;;;59.67;27.15;;;5.60;99.90;;;;;;5051399;28;20053;-74
2022/10/05 05:09:21;;;;;;;50.35;25.83;;;5.60;99.90;;;;;;5053371;28;20045;-75
2022/10/05 05:12:02;;;;;;;46.03;26.25;;;5.70;99.90;;;;;;5050615;28;20041;-74
2022/10/05 05:14:54;;;;;;;59.13;27.40;;;5.70;99.90;;;;;;5051237;28;20143;-74
2022/10/05 05:17:39;;;;;;;46.00;23.15;;;5.80;99.90;;;;;;5034518;28;20435;-74
2022/10/05 05:20:20;;;;;;;52.90;26.08;;;5.90;99.90;;;;;;5052994;28;20036;-74
2022/10/05 05:22:53;;;;;;;50.55;26.10;;;5.90;99.90;;;;;;5050740;28;20403;-74
2022/10/05 05:25:43;;;;;;;53.30;28.52;;;5.90;99.90;;;;;;5051533;28;20496;-74
2022/10/05 05:28:21;;;;;;;52.13;26.33;;;6.00;99.90;;;;;;5040149;28;20045;-74
2022/10/05 05:30:56;;;;;;;43.22;22.60;;;6.10;99.90;;;;;;5051845;28;20056;-75
2022/10/05 05:33:32;;;;;;;36.88;20.60;;;6.10;99.90;;;;;;5064832;28;20049;-74
2022/10/05 05:36:27;;;;;;;35.47;19.40;;;6.20;99.90;;;;;;5051313;28;20045;-74
2022/10/05 05:39:14;;;;;;;34.40;19.00;;;6.40;99.90;;;;;;5051379;28;20040;-74
2022/10/05 05:41:57;;;;;;;33.83;19.25;;;6.50;99.90;;;;;;5049657;28;20098;-75
2022/10/05 05:44:27;;;;;;;38.90;19.83;;;6.60;99.90;;;;;;5051372;28;20059;-75
2022/10/05 05:47:01;;;;;;;35.83;18.23;;;6.70;99.90;;;;;;5051682;28;20155;-75
2022/10/05 05:49:41;;;;;;;31.45;18.77;;;6.80;99.90;;;;;;5051032;28;20049;-74
2022/10/05 05:52:18;;;;;;;38.78;18.70;;;6.80;99.90;;;;;;5050934;28;20132;-74
2022/10/05 05:54:54;;;;;;;39.05;20.77;;;6.90;99.90;;;;;;5051319;28;20147;-75
2022/10/05 05:57:28;;;;;;;112.40;27.27;;;7.00;99.90;;;;;;5050408;28;20079;-75
2022/10/05 06:00:06;;;;;;;33.70;18.27;;;7.00;99.90;;;;;;5051414;28;20045;-74
2022/10/05 06:02:56;;;;;;;37.75;21.60;;;7.20;99.90;;;;;;5045918;28;20056;-74
2022/10/05 06:05:32;;;;;;;39.40;23.83;;;7.30;99.90;;;;;;5050835;28;20049;-73
2022/10/05 06:08:07;;;;;;;37.70;22.48;;;7.50;99.90;;;;;;5051607;28;20055;-73
2022/10/05 06:10:42;;;;;;;50.15;30.15;;;7.70;99.90;;;;;;5043435;28;20057;-72
2022/10/05 06:13:19;;;;;;;44.85;30.08;;;7.90;99.90;;;;;;5051780;28;20052;-73
2022/10/05 06:15:52;;;;;;;48.47;30.23;;;8.00;99.90;;;;;;5051177;28;20075;-73
2022/10/05 06:18:22;;;;;;;40.42;24.80;;;8.30;99.90;;;;;;5048283;28;20056;-73
2022/10/05 06:20:57;;;;;;;43.72;26.30;;;8.40;99.90;;;;;;5050922;28;20156;-73
2022/10/05 06:23:30;;;;;;;43.15;24.65;;;8.50;99.90;;;;;;5055401;28;20508;-73
2022/10/05 06:26:23;;;;;;;33.08;22.80;;;8.60;99.90;;;;;;5057792;28;20044;-74
2022/10/05 06:28:58;;;;;;;33.13;21.48;;;8.80;99.90;;;;;;5063534;28;20166;-73
2022/10/05 06:31:37;;;;;;;33.10;20.85;;;9.00;99.90;;;;;;5066795;28;20053;-74
2022/10/05 06:34:17;;;;;;;30.88;19.00;;;9.20;99.90;;;;;;5066224;28;20064;-73
2022/10/05 06:36:50;;;;;;;37.85;21.58;;;9.40;99.90;;;;;;5063540;28;20041;-73
2022/10/05 06:39:44;;;;;;;27.77;18.85;;;9.50;99.90;;;;;;5065161;28;20083;-74
2022/10/05 06:42:30;;;;;;;32.53;19.70;;;9.60;99.90;;;;;;5062243;28;20053;-72
2022/10/05 06:45:35;;;;;;;30.55;18.42;;;9.90;99.90;;;;;;5045134;28;20519;-73
2022/10/05 06:48:33;;;;;;;42.90;22.45;;;10.00;99.90;;;;;;5059201;28;20076;-72
2022/10/05 06:51:32;;;;;;;28.88;17.90;;;10.20;99.90;;;;;;5055827;28;20052;-72
2022/10/05 06:54:21;;;;;;;30.50;18.77;;;10.20;99.90;;;;;;5053773;28;20469;-73
2022/10/05 06:57:10;;;;;;;28.52;18.35;;;10.50;99.90;;;;;;5056960;28;20049;-72
2022/10/05 06:59:46;;;;;;;36.70;19.42;;;10.70;99.90;;;;;;5052412;28;20059;-72
2022/10/05 07:02:23;;;;;;;36.65;21.95;;;10.90;99.90;;;;;;5052838;28;20098;-72
2022/10/05 07:05:15;;;;;;;34.35;23.45;;;11.00;99.90;;;;;;5051548;28;20048;-72
2022/10/05 07:07:51;;;;;;;35.45;19.88;;;11.00;99.90;;;;;;5052857;28;20049;-72
2022/10/05 07:10:31;;;;;;;31.27;18.67;;;11.10;99.90;;;;;;5056018;28;20427;-72
2022/10/05 07:13:11;;;;;;;32.42;20.33;;;11.10;99.90;;;;;;5055100;28;20076;-73
2022/10/05 07:15:44;;;;;;;25.88;18.02;;;11.30;99.90;;;;;;5055193;28;20403;-72
2022/10/05 07:18:32;;;;;;;28.13;20.20;;;11.50;99.90;;;;;;5053841;28;20080;-73
2022/10/05 07:21:08;;;;;;;34.38;19.70;;;11.50;99.90;;;;;;5047408;28;20774;-73
2022/10/05 07:23:51;;;;;;;31.10;18.40;;;11.80;99.90;;;;;;5036147;28;20520;-72
2022/10/05 07:26:25;;;;;;;35.75;20.30;;;11.80;99.90;;;;;;5043622;28;20079;-73
2022/10/05 07:29:09;;;;;;;35.55;20.15;;;12.00;99.90;;;;;;5054972;28;20508;-73
2022/10/05 07:31:45;;;;;;;33.83;19.30;;;12.30;99.90;;;;;;5053857;28;20053;-73
2022/10/05 07:34:26;;;;;;;29.80;19.85;;;12.40;99.90;;;;;;5054710;28;20556;-72
2022/10/05 07:39:55;;;;;;;34.33;22.15;;;12.70;99.90;;;;;;5034770;28;20104;-74
2022/10/05 07:42:39;;;;;;;35.05;21.65;;;12.90;99.90;;;;;;5040629;28;20139;-74
2022/10/05 07:45:16;;;;;;;36.20;20.60;;;13.20;99.90;;;;;;5053932;28;20057;-73
2022/10/05 07:47:53;;;;;;;32.63;20.58;;;13.60;99.90;;;;;;5053953;28;20076;-73
2022/10/05 07:50:28;;;;;;;39.55;21.75;;;13.80;99.90;;;;;;5046521;28;20053;-72
2022/10/05 07:52:58;;;;;;;27.08;19.27;;;13.70;99.90;;;;;;5041956;28;20045;-73
2022/10/05 07:55:29;;;;;;;34.53;20.55;;;13.70;99.90;;;;;;5052323;28;20480;-73
2022/10/05 07:58:06;;;;;;;31.40;19.25;;;13.70;99.90;;;;;;5054712;28;20040;-73
2022/10/05 08:00:58;;;;;;;28.92;17.27;;;13.90;99.90;;;;;;5051656;28;20504;-73
2022/10/05 08:03:37;;;;;;;27.77;16.38;;;14.00;99.90;;;;;;5052087;28;20052;-73
2022/10/05 08:06:10;;;;;;;27.55;17.23;;;14.30;99.90;;;;;;5053703;28;20123;-73
2022/10/05 08:08:48;;;;;;;25.80;14.75;;;14.40;99.90;;;;;;5046947;28;20052;-73
2022/10/05 08:11:19;;;;;;;22.45;12.73;;;14.40;99.90;;;;;;5043792;28;20045;-73
2022/10/05 08:13:51;;;;;;;23.88;14.45;;;14.40;99.90;;;;;;5035041;28;20119;-71
2022/10/05 08:16:19;;;;;;;23.33;12.75;;;14.20;99.90;;;;;;5048543;28;20118;-72
2022/10/05 08:18:55;;;;;;;22.20;12.90;;;14.40;99.90;;;;;;5053038;28;20049;-72
2022/10/05 08:21:30;;;;;;;24.42;12.18;;;14.60;99.90;;;;;;5054337;28;20040;-71
2022/10/05 08:24:06;;;;;;;19.88;13.30;;;14.80;99.90;;;;;;5053120;28;20049;-71
2022/10/05 08:26:41;;;;;;;17.48;10.88;;;15.00;99.90;;;;;;5045840;28;20103;-72
2022/10/05 08:29:17;;;;;;;20.40;10.73;;;15.30;99.90;;;;;;5052489;28;20098;-73
2022/10/05 08:31:48;;;;;;;19.73;11.45;;;15.40;99.90;;;;;;5053556;28;20504;-73
2022/10/05 08:34:26;;;;;;;14.48;8.32;;;15.50;99.90;;;;;;5054859;28;20052;-72
2022/10/05 08:37:03;;;;;;;16.80;11.15;;;15.70;99.90;;;;;;5052898;28;20102;-72
2022/10/05 08:39:37;;;;;;;16.58;7.70;;;15.70;99.90;;;;;;5054212;28;20041;-72
2022/10/05 08:42:40;;;;;;;17.27;8.90;;;15.80;99.90;;;;;;5054644;28;20041;-72
2022/10/05 08:45:37;;;;;;;21.25;10.60;;;16.00;99.90;;;;;;5034032;28;20064;-73
2022/10/05 08:48:34;;;;;;;27.80;16.33;;;16.00;99.90;;;;;;5054005;28;20116;-72
2022/10/05 08:51:31;;;;;;;10.27;6.47;;;16.20;99.90;;;;;;5054365;28;20044;-72
2022/10/05 08:54:28;;;;;;;12.10;6.03;;;16.00;99.90;;;;;;5054029;28;20045;-72
2022/10/05 08:57:25;;;;;;;11.40;6.00;;;15.90;99.90;;;;;;5054006;28;20060;-71
2022/10/05 09:00:17;;;;;;;11.88;5.72;;;15.90;99.90;;;;;;5049286;28;20052;-71
2022/10/05 09:03:18;;;;;;;12.32;5.55;;;15.90;99.90;;;;;;5051371;28;20049;-72
2022/10/05 09:06:29;;;;;;;14.52;6.40;;;16.00;99.90;;;;;;5047683;28;20033;-71
2022/10/05 09:09:24;;;;;;;11.07;6.13;;;16.10;99.90;;;;;;5047890;28;20550;-72
2022/10/05 09:12:06;;;;;;;10.07;5.85;;;16.20;99.90;;;;;;5053069;28;20048;-72
2022/10/05 09:14:53;;;;;;;10.20;5.55;;;16.20;99.90;;;;;;5052470;28;20045;-72
2022/10/05 09:17:36;;;;;;;10.20;6.15;;;16.40;99.90;;;;;;5053953;28;20094;-71
2022/10/05 09:20:29;;;;;;;10.27;6.03;;;16.50;99.90;;;;;;5047462;28;20432;-71
2022/10/05 09:23:13;;;;;;;9.57;5.65;;;16.50;99.90;;;;;;5038471;28;20045;-71
2022/10/05 09:25:57;;;;;;;12.60;6.80;;;16.60;99.90;;;;;;5036675;28;20045;-72
2022/10/05 09:28:31;;;;;;;12.65;5.72;;;16.70;99.90;;;;;;5053854;28;20067;-73
2022/10/05 09:31:12;;;;;;;11.60;4.30;;;16.70;99.90;;;;;;5038082;28;20175;-72
2022/10/05 09:34:16;;;;;;;9.55;6.38;;;16.70;99.90;;;;;;5033183;28;20467;-73
2022/10/05 09:37:19;;;;;;;9.15;4.63;;;16.80;99.90;;;;;;5034104;28;20042;-72
2022/10/05 09:40:24;;;;;;;8.82;4.32;;;16.80;99.90;;;;;;5008574;28;20136;-72
2022/10/05 09:43:09;;;;;;;7.63;3.72;;;16.80;99.90;;;;;;5033226;28;20045;-72
2022/10/05 09:46:09;;;;;;;6.50;4.13;;;16.80;99.90;;;;;;5033269;28;20049;-72
2022/10/05 09:49:10;;;;;;;7.15;3.00;;;17.00;99.90;;;;;;5031649;28;20504;-73
2022/10/05 09:52:06;;;;;;;5.05;3.20;;;17.10;97.70;;;;;;5027765;28;20128;-72
2022/10/05 09:55:16;;;;;;;5.43;2.85;;;17.10;96.80;;;;;;5031846;28;20060;-72
2022/10/05 09:58:10;;;;;;;5.07;2.38;;;17.20;94.90;;;;;;5032959;28;20508;-71
2022/10/05 10:01:00;;;;;;;7.05;3.17;;;17.30;93.60;;;;;;5037150;28;20045;-71
2022/10/05 10:04:11;;;;;;;8.70;4.78;;;17.40;93.40;;;;;;5052801;28;20064;-72
2022/10/05 10:07:19;;;;;;;9.05;5.75;;;17.30;96.90;;;;;;5052589;28;20041;-71
2022/10/05 10:10:16;;;;;;;7.05;4.30;;;17.40;97.10;;;;;;5033486;28;20124;-73
2022/10/05 10:12:59;;;;;;;10.88;4.97;;;17.50;97.40;;;;;;5032799;28;20041;-72
2022/10/05 10:15:51;;;;;;;9.43;4.40;;;17.60;97.30;;;;;;5035210;28;20045;-72
2022/10/05 10:18:41;;;;;;;7.35;3.85;;;17.80;96.20;;;;;;5049891;28;20060;-72
2022/10/05 10:21:28;;;;;;;6.28;3.67;;;17.70;97.40;;;;;;5050404;28;20033;-72
2022/10/05 10:24:15;;;;;;;8.30;3.92;;;17.60;97.90;;;;;;5054151;28;20033;-71
2022/10/05 10:27:16;;;;;;;17.23;12.45;;;17.70;97.50;;;;;;5053253;28;20053;-72
2022/10/05 10:30:27;;;;;;;8.18;4.70;;;17.90;97.70;;;;;;5036584;28;20053;-71
2022/10/05 10:33:23;;;;;;;8.75;4.00;;;17.80;95.90;;;;;;5053151;28;20103;-73
2022/10/05 10:35:58;;;;;;;15.35;8.23;;;17.80;96.00;;;;;;5051602;28;20045;-71
2022/10/05 10:38:51;;;;;;;10.27;5.77;;;18.00;96.00;;;;;;5052329;28;20400;-72
2022/10/05 10:41:46;;;;;;;6.95;4.38;;;18.20;95.80;;;;;;5050962;28;20045;-73
2022/10/05 10:44:53;;;;;;;8.48;4.47;;;18.00;96.00;;;;;;5056596;28;20044;-73
2022/10/05 10:47:44;;;;;;;9.63;6.07;;;18.00;95.90;;;;;;5057037;28;20045;-72
2022/10/05 10:50:55;;;;;;;11.65;7.03;;;18.20;95.80;;;;;;5057080;28;20033;-71
2022/10/05 10:53:54;;;;;;;10.60;5.95;;;18.30;96.20;;;;;;5054994;28;20056;-71
2022/10/05 10:56:36;;;;;;;13.77;7.57;;;18.40;96.40;;;;;;5056009;28;20127;-70
2022/10/05 10:59:43;;;;;;;10.85;5.57;;;18.50;95.20;;;;;;5055928;28;20080;-72
2022/10/05 11:02:45;;;;;;;10.55;6.43;;;18.50;94.30;;;;;;5056608;28;20056;-73
2022/10/05 11:05:45;;;;;;;11.13;7.00;;;18.60;94.10;;;;;;5054187;28;20049;-73
2022/10/05 11:08:44;;;;;;;13.57;4.82;;;18.70;94.20;;;;;;5055240;28;20052;-74
2022/10/05 11:11:38;;;;;;;8.05;4.45;;;18.90;94.10;;;;;;5055958;28;20045;-74
2022/10/05 11:14:44;;;;;;;6.03;3.30;;;18.90;92.30;;;;;;5055831;28;20051;-74
2022/10/05 11:18:07;;;;;;;6.55;3.67;;;18.80;91.50;;;;;;5055935;28;20045;-74
2022/10/05 11:21:13;;;;;;;6.53;3.65;;;18.80;91.70;;;;;;4998858;28;20541;-73
2022/10/05 11:24:22;;;;;;;6.82;3.50;;;18.80;91.60;;;;;;5019616;28;20051;-73
2022/10/05 11:27:18;;;;;;;7.10;3.28;;;18.70;91.10;;;;;;5055530;28;20484;-73
2022/10/05 11:30:21;;;;;;;7.07;3.65;;;18.60;90.40;;;;;;5048990;28;20500;-73
2022/10/05 11:33:15;;;;;;;11.00;5.70;;;18.50;86.90;;;;;;5035512;28;20045;-73
2022/10/05 11:36:02;;;;;;;6.30;2.85;;;18.50;86.40;;;;;;5041374;28;20493;-73
2022/10/05 11:38:57;;;;;;;6.97;4.53;;;18.50;82.80;;;;;;5057010;28;20037;-74
2022/10/05 11:41:44;;;;;;;5.35;2.90;;;18.60;81.20;;;;;;5056533;28;20087;-76
2022/10/05 11:44:41;;;;;;;7.90;3.05;;;18.60;83.70;;;;;;5055896;28;20053;-70
2022/10/05 11:47:16;;;;;;;4.97;2.95;;;18.70;86.10;;;;;;5055273;28;20064;-72
2022/10/05 11:49:48;;;;;;;7.00;4.22;;;18.70;87.40;;;;;;5056518;28;20041;-71
2022/10/05 11:52:26;;;;;;;5.57;3.17;;;18.70;86.00;;;;;;5056657;28;20049;-71
2022/10/05 11:55:14;;;;;;;9.20;6.00;;;18.70;84.30;;;;;;5053932;28;20049;-71
2022/10/05 11:57:49;;;;;;;3.88;1.85;;;18.80;85.50;;;;;;5053099;28;20447;-71
2022/10/05 12:00:22;;;;;;;7.53;4.47;;;18.90;82.50;;;;;;5056026;28;20044;-70
2022/10/05 12:03:25;;;;;;;5.35;2.67;;;18.90;82.70;;;;;;5054735;28;20455;-72
2022/10/05 12:06:21;;;;;;;7.13;3.38;;;18.90;82.00;;;;;;5054649;28;20044;-72
2022/10/05 12:09:03;;;;;;;4.50;2.53;;;18.90;81.50;;;;;;5051024;28;20083;-72
2022/10/05 12:11:53;;;;;;;5.22;2.67;;;18.60;81.90;;;;;;5054155;28;20069;-71
2022/10/05 12:14:33;;;;;;;6.18;2.92;;;18.80;82.20;;;;;;5034400;28;20057;-71
2022/10/05 12:17:06;;;;;;;9.30;4.07;;;18.90;81.70;;;;;;5034078;28;20091;-70
2022/10/05 12:19:36;;;;;;;4.60;2.20;;;19.00;81.90;;;;;;5044848;28;20094;-71
2022/10/05 12:22:14;;;;;;;6.20;3.72;;;19.00;80.50;;;;;;5054453;28;20068;-70
2022/10/05 12:25:20;;;;;;;5.70;3.63;;;19.10;80.30;;;;;;5053316;28;20427;-71
2022/10/05 12:27:52;;;;;;;4.82;2.53;;;19.10;79.90;;;;;;5048347;28;20043;-71
2022/10/05 12:30:29;;;;;;;9.05;4.22;;;19.20;80.20;;;;;;5052345;28;20052;-71
2022/10/05 12:33:03;;;;;;;4.82;2.40;;;19.20;81.20;;;;;;5054195;28;20041;-71
2022/10/05 12:35:38;;;;;;;4.72;2.70;;;19.20;80.00;;;;;;5052575;28;20040;-70
2022/10/05 12:38:15;;;;;;;5.70;3.20;;;19.40;80.10;;;;;;5053454;28;20029;-73
2022/10/05 12:40:51;;;;;;;6.20;2.80;;;19.40;80.30;;;;;;5053982;28;20029;-72
2022/10/05 12:43:27;;;;;;;7.13;3.50;;;19.40;79.20;;;;;;5053936;28;20059;-72
2022/10/05 12:46:06;;;;;;;6.50;4.20;;;19.50;79.70;;;;;;5054011;28;20045;-71
2022/10/05 12:48:58;;;;;;;6.57;2.97;;;19.70;79.20;;;;;;5052524;28;20081;-71
2022/10/05 12:51:34;;;;;;;7.68;4.20;;;19.80;78.20;;;;;;5039800;28;20463;-70
2022/10/05 12:54:10;;;;;;;6.95;4.75;;;19.70;76.70;;;;;;5048973;28;20040;-70
2022/10/05 12:56:42;;;;;;;;;;;19.80;75.00;;;;;;5053890;28;20501;-71
2022/10/05 12:59:20;;;;;;;12.60;7.47;;;19.70;74.70;;;;;;5053670;28;20011;-71
2022/10/05 13:01:53;;;;;;;8.52;5.63;;;19.60;72.50;;;;;;5053813;28;20044;-73
2022/10/05 13:04:34;;;;;;;7.07;4.13;;;19.70;72.90;;;;;;5053587;28;20098;-71
2022/10/05 13:07:25;;;;;;;7.80;5.30;;;19.80;75.20;;;;;;5053062;28;20411;-70
2022/10/05 13:10:02;;;;;;;5.60;3.80;;;19.90;75.60;;;;;;5053361;28;20057;-72
2022/10/05 13:12:40;;;;;;;7.45;5.72;;;20.00;74.90;;;;;;5053127;28;20042;-71
2022/10/05 13:15:19;;;;;;;8.57;5.10;;;20.20;75.30;;;;;;5053171;28;20404;-71
2022/10/05 13:17:57;;;;;;;6.47;3.50;;;20.30;74.30;;;;;;5053447;28;20053;-71
2022/10/05 13:20:32;;;;;;;7.50;4.13;;;20.30;74.40;;;;;;5047013;28;20130;-71
2022/10/05 13:23:07;;;;;;;6.90;3.70;;;20.30;74.00;;;;;;5041260;28;20397;-71
2022/10/05 13:25:38;;;;;;;3.63;2.03;;;20.20;74.30;;;;;;5052974;28;20041;-70
2022/10/05 13:28:21;;;;;;;6.78;3.00;;;20.20;72.50;;;;;;5053217;28;20044;-70
2022/10/05 13:31:02;;;;;;;4.50;2.72;;;20.20;73.70;;;;;;5052377;28;20106;-71
2022/10/05 13:33:52;;;;;;;52.78;8.15;;;20.10;73.00;;;;;;5051215;28;20543;-72
2022/10/05 13:36:30;;;;;;;6.35;4.38;;;20.00;73.80;;;;;;5050897;28;20048;-70
2022/10/05 13:39:03;;;;;;;4.80;3.20;;;20.00;74.10;;;;;;5053087;28;20048;-70
2022/10/05 13:41:42;;;;;;;7.57;4.78;;;19.90;75.00;;;;;;5051664;28;20576;-69
2022/10/05 13:44:21;;;;;;;5.03;2.88;;;20.00;73.80;;;;;;5053007;28;20095;-70
2022/10/05 13:46:55;;;;;;;5.18;2.60;;;19.90;73.60;;;;;;5053184;28;20493;-71
2022/10/05 13:49:28;;;;;;;6.40;4.22;;;19.90;74.30;;;;;;5053355;28;20103;-70
2022/10/05 13:52:06;;;;;;;6.28;2.63;;;19.90;75.60;;;;;;5052572;28;20045;-72
2022/10/05 13:54:42;;;;;;;4.93;3.35;;;19.80;74.20;;;;;;5048326;28;20068;-70